Time;durP1;ratioP1;P1;durP2;ratioP2;P2;SDS_P1;SDS_P2;PMS_P1;PMS_P2;Temp;Humidity;BMP_temperature;BMP_pressure;BME280_temperature;BME280_humidity;BME280_pressure;Samples;Min_cycle;Max_cycle;Signal;HPM_P1;HPM_P2
2024/04/08 00:00:21;;;;;;;11.32;2.17;;;19.60;99.90;;;;;;5402336;26;20241;-74
2024/04/08 00:02:50;;;;;;;10.63;2.50;;;19.60;99.90;;;;;;5401980;26;20238;-76
2024/04/08 00:05:16;;;;;;;10.75;2.67;;;19.60;99.90;;;;;;5382430;26;20651;-75
2024/04/08 00:07:42;;;;;;;14.63;3.20;;;19.60;99.90;;;;;;5389511;26;20238;-74
2024/04/08 00:10:07;;;;;;;13.13;2.83;;;19.60;99.90;;;;;;5383914;26;20233;-75
2024/04/08 00:12:33;;;;;;;13.60;3.33;;;19.60;99.90;;;;;;5381162;26;20724;-74
2024/04/08 00:14:59;;;;;;;9.95;2.88;;;19.60;99.90;;;;;;5380110;26;20346;-76
2024/04/08 00:17:24;;;;;;;9.38;2.35;;;19.60;99.90;;;;;;5376662;26;20352;-76
2024/04/08 00:19:50;;;;;;;16.15;3.40;;;19.60;99.90;;;;;;5381689;26;20716;-75
2024/04/08 00:22:15;;;;;;;7.05;2.13;;;19.60;99.90;;;;;;5381095;26;20242;-73
2024/04/08 00:24:42;;;;;;;15.55;2.40;;;19.60;99.90;;;;;;5381694;26;20581;-75
2024/04/08 00:27:07;;;;;;;8.40;2.50;;;19.60;99.90;;;;;;5382010;26;20238;-74
2024/04/08 00:29:33;;;;;;;10.80;2.53;;;19.60;99.90;;;;;;5381868;26;20288;-75
2024/04/08 00:31:58;;;;;;;11.48;2.35;;;19.60;99.90;;;;;;5380818;26;20242;-76
2024/04/08 00:34:24;;;;;;;10.77;2.72;;;19.50;99.90;;;;;;5381951;26;20242;-75
2024/04/08 00:36:50;;;;;;;6.20;2.08;;;19.50;99.90;;;;;;5381678;26;20347;-75
2024/04/08 00:39:15;;;;;;;12.10;2.70;;;19.50;99.90;;;;;;5386558;26;20245;-75
2024/04/08 00:41:41;;;;;;;10.15;2.53;;;19.50;99.90;;;;;;5383085;26;20728;-75
2024/04/08 00:44:06;;;;;;;13.13;2.85;;;19.40;99.90;;;;;;5381240;26;20238;-74
2024/04/08 00:46:32;;;;;;;11.98;2.20;;;19.40;99.90;;;;;;5378471;26;20253;-74
2024/04/08 00:48:58;;;;;;;10.63;2.75;;;19.40;99.90;;;;;;5380997;26;20695;-74
2024/04/08 00:51:25;;;;;;;8.10;2.15;;;19.50;99.90;;;;;;5380404;26;20288;-74
2024/04/08 00:53:51;;;;;;;9.43;1.98;;;19.50;99.90;;;;;;5380982;26;20323;-74
2024/04/08 00:56:20;;;;;;;9.63;2.67;;;19.60;99.90;;;;;;5381476;26;20658;-75
2024/04/08 00:58:47;;;;;;;7.97;1.92;;;19.70;99.90;;;;;;5379886;26;20780;-74
2024/04/08 01:01:16;;;;;;;11.25;3.08;;;19.80;99.90;;;;;;5381438;26;20650;-75
2024/04/08 01:03:44;;;;;;;13.52;2.75;;;19.80;99.90;;;;;;5379964;26;20314;-75
2024/04/08 01:06:12;;;;;;;9.70;2.30;;;19.80;99.90;;;;;;5381913;26;20230;-76
2024/04/08 01:08:38;;;;;;;6.63;1.80;;;19.90;99.90;;;;;;5379834;26;20599;-75
2024/04/08 01:11:06;;;;;;;6.85;1.85;;;19.90;99.90;;;;;;5379727;26;20309;-75
2024/04/08 01:13:32;;;;;;;10.50;1.98;;;19.80;99.90;;;;;;5384345;26;20429;-74
2024/04/08 01:15:59;;;;;;;6.63;2.10;;;19.90;99.90;;;;;;5381756;26;20622;-74
2024/04/08 01:18:25;;;;;;;6.40;1.90;;;19.80;99.90;;;;;;5379013;26;20245;-74
2024/04/08 01:20:50;;;;;;;8.20;2.63;;;19.80;99.90;;;;;;5378355;26;20288;-74
2024/04/08 01:23:20;;;;;;;6.68;2.20;;;19.70;99.90;;;;;;5378526;26;20246;-74
2024/04/08 01:25:46;;;;;;;7.65;2.63;;;19.70;99.90;;;;;;5376714;26;20233;-74
2024/04/08 01:28:12;;;;;;;8.15;2.22;;;19.70;99.90;;;;;;5376329;26;20785;-74
2024/04/08 01:30:39;;;;;;;11.63;2.63;;;19.60;99.90;;;;;;5377438;26;20241;-74
2024/04/08 01:33:04;;;;;;;10.55;2.25;;;19.60;99.90;;;;;;5375904;26;20284;-74
2024/04/08 01:35:30;;;;;;;8.85;2.97;;;19.50;99.90;;;;;;5376733;26;20250;-75
2024/04/08 01:37:56;;;;;;;12.73;2.83;;;19.40;99.90;;;;;;5383145;26;20229;-75
2024/04/08 01:40:21;;;;;;;12.82;2.90;;;19.40;99.90;;;;;;5378923;26;20302;-76
2024/04/08 01:42:47;;;;;;;12.40;2.75;;;19.40;99.90;;;;;;5379391;26;20269;-75
2024/04/08 01:45:12;;;;;;;9.25;2.45;;;19.40;99.90;;;;;;5380676;26;20241;-76
2024/04/08 01:47:38;;;;;;;8.82;2.03;;;19.40;99.90;;;;;;5379405;26;20692;-75
2024/04/08 01:50:04;;;;;;;11.10;2.10;;;19.50;99.90;;;;;;5378558;26;20338;-75
2024/04/08 01:52:30;;;;;;;16.35;2.42;;;19.50;99.90;;;;;;5379582;26;20301;-74
2024/04/08 01:54:56;;;;;;;7.20;1.58;;;19.50;99.90;;;;;;5380163;26;20238;-74
2024/04/08 01:57:22;;;;;;;12.05;2.55;;;19.50;99.90;;;;;;5380221;26;20272;-73
2024/04/08 01:59:47;;;;;;;10.75;1.98;;;19.50;99.90;;;;;;5378038;26;20238;-75
2024/04/08 02:02:13;;;;;;;12.15;3.28;;;19.50;99.90;;;;;;5384276;26;20315;-75
2024/04/08 02:04:39;;;;;;;9.30;2.88;;;19.40;99.90;;;;;;5384613;26;20358;-74
2024/04/08 02:07:04;;;;;;;13.15;3.13;;;19.30;99.90;;;;;;5367458;26;20775;-74
2024/04/08 02:09:30;;;;;;;8.73;2.63;;;19.10;99.90;;;;;;5381128;26;20229;-74
2024/04/08 02:11:56;;;;;;;8.98;3.08;;;19.10;99.90;;;;;;5380732;26;20277;-74
2024/04/08 02:14:21;;;;;;;12.77;3.45;;;18.90;99.90;;;;;;5380445;26;20347;-75
2024/04/08 02:16:47;;;;;;;14.10;3.05;;;18.90;99.90;;;;;;5380190;26;20241;-74
2024/04/08 02:19:13;;;;;;;9.45;2.42;;;18.90;99.90;;;;;;5375093;26;20253;-75
2024/04/08 02:21:38;;;;;;;8.98;2.53;;;18.90;99.90;;;;;;5377453;26;20332;-74
2024/04/08 02:24:04;;;;;;;11.55;2.97;;;18.90;99.90;;;;;;5382055;26;20241;-76
2024/04/08 02:26:30;;;;;;;10.25;3.10;;;18.90;99.90;;;;;;5382992;26;20268;-74
2024/04/08 02:28:58;;;;;;;9.65;2.38;;;18.90;99.90;;;;;;5381807;26;20771;-75
2024/04/08 02:31:24;;;;;;;11.90;2.97;;;18.90;99.90;;;;;;5381921;26;20264;-74
2024/04/08 02:33:50;;;;;;;11.13;2.63;;;18.90;99.90;;;;;;5383781;26;20234;-74
2024/04/08 02:36:15;;;;;;;14.68;2.65;;;18.90;99.90;;;;;;5382154;26;20274;-75
2024/04/08 02:38:41;;;;;;;9.32;3.10;;;18.90;99.90;;;;;;5381894;26;20242;-74
2024/04/08 02:41:06;;;;;;;13.30;2.45;;;18.90;99.90;;;;;;5380323;26;20249;-75
2024/04/08 02:43:32;;;;;;;13.88;2.88;;;18.80;99.90;;;;;;5376896;26;20630;-74
2024/04/08 02:45:58;;;;;;;8.77;2.35;;;18.80;99.90;;;;;;5378579;26;20230;-74
2024/04/08 02:48:24;;;;;;;9.55;2.88;;;18.80;99.90;;;;;;5379281;26;20699;-75
2024/04/08 02:50:51;;;;;;;10.48;3.25;;;18.70;99.90;;;;;;5377196;26;20238;-73
2024/04/08 02:53:17;;;;;;;11.25;2.97;;;18.70;99.90;;;;;;5376059;26;20287;-74
2024/04/08 02:55:43;;;;;;;20.73;3.50;;;18.70;99.90;;;;;;5373383;26;20267;-75
2024/04/08 02:58:08;;;;;;;15.68;2.85;;;18.70;99.90;;;;;;5379134;26;20253;-75
2024/04/08 03:00:40;;;;;;;11.23;2.72;;;18.60;99.90;;;;;;5379817;26;20762;-75
2024/04/08 03:03:06;;;;;;;7.13;2.97;;;18.70;99.90;;;;;;5377915;26;20268;-74
2024/04/08 03:05:32;;;;;;;7.95;2.42;;;18.70;99.90;;;;;;5378752;26;20250;-74
2024/04/08 03:07:58;;;;;;;15.80;2.40;;;18.70;99.90;;;;;;5378660;26;20238;-74
2024/04/08 03:10:23;;;;;;;10.35;3.05;;;18.60;99.90;;;;;;5377673;26;20671;-74
2024/04/08 03:12:49;;;;;;;10.13;2.67;;;18.60;99.90;;;;;;5380848;26;20230;-74
2024/04/08 03:15:15;;;;;;;12.48;2.83;;;18.70;99.90;;;;;;5382945;26;20575;-73
2024/04/08 03:17:40;;;;;;;9.95;2.30;;;18.70;99.90;;;;;;5374584;26;20243;-75
2024/04/08 03:20:07;;;;;;;13.32;2.70;;;18.70;99.90;;;;;;5374475;26;20253;-74
2024/04/08 03:22:33;;;;;;;10.70;2.40;;;18.70;99.90;;;;;;5376323;26;20257;-74
2024/04/08 03:24:59;;;;;;;7.35;2.70;;;18.70;99.90;;;;;;5378313;26;20675;-75
2024/04/08 03:27:24;;;;;;;7.53;2.70;;;18.70;99.90;;;;;;5380646;26;20264;-76
2024/04/08 03:29:53;;;;;;;10.23;2.90;;;18.70;99.90;;;;;;5375800;26;20368;-74
2024/04/08 03:32:19;;;;;;;11.95;3.15;;;18.70;99.90;;;;;;5374186;26;20341;-74
2024/04/08 03:34:44;;;;;;;10.45;2.85;;;18.60;99.90;;;;;;5376089;26;20238;-73
2024/04/08 03:37:10;;;;;;;13.43;2.90;;;18.60;99.90;;;;;;5378578;26;20335;-75
2024/04/08 03:39:36;;;;;;;12.70;3.38;;;18.60;99.90;;;;;;5380040;26;20250;-75
2024/04/08 03:42:02;;;;;;;14.98;2.67;;;18.60;99.90;;;;;;5380644;26;20351;-75
2024/04/08 03:44:28;;;;;;;14.90;2.88;;;18.70;99.90;;;;;;5379380;26;20241;-74
2024/04/08 03:46:53;;;;;;;14.18;3.05;;;18.60;99.90;;;;;;5382015;26;20287;-75
2024/04/08 03:49:19;;;;;;;13.55;2.40;;;18.60;99.90;;;;;;5382449;26;20292;-75
2024/04/08 03:51:45;;;;;;;12.30;2.92;;;18.60;99.90;;;;;;5390087;26;20343;-77
2024/04/08 03:54:10;;;;;;;9.45;2.88;;;18.60;99.90;;;;;;5383295;26;20368;-75
2024/04/08 03:56:36;;;;;;;12.35;3.15;;;18.60;99.90;;;;;;5381913;26;20238;-76
2024/04/08 03:59:02;;;;;;;11.88;2.50;;;18.60;99.90;;;;;;5380455;26;20238;-75
2024/04/08 04:01:28;;;;;;;5.53;2.22;;;18.60;99.90;;;;;;5382948;26;20238;-72
2024/04/08 04:03:53;;;;;;;9.15;2.35;;;18.60;99.90;;;;;;5381778;26;20284;-74
2024/04/08 04:06:19;;;;;;;10.00;2.55;;;18.60;99.90;;;;;;5378714;26;20300;-75
2024/04/08 04:08:44;;;;;;;7.88;2.40;;;18.60;99.90;;;;;;5376982;26;20234;-74
2024/04/08 04:11:10;;;;;;;7.88;2.25;;;18.60;99.90;;;;;;5380807;26;20241;-74
2024/04/08 04:13:36;;;;;;;5.45;2.60;;;18.50;99.90;;;;;;5381099;26;20380;-74
2024/04/08 04:16:05;;;;;;;7.00;2.20;;;18.50;99.90;;;;;;5379846;26;20372;-75
2024/04/08 04:18:32;;;;;;;7.82;2.30;;;18.50;99.90;;;;;;5379953;26;20253;-74
2024/04/08 04:20:58;;;;;;;5.15;2.53;;;18.50;99.90;;;;;;5380455;26;20289;-74
2024/04/08 04:23:23;;;;;;;11.93;3.03;;;18.50;99.90;;;;;;5381210;26;20411;-74
2024/04/08 04:25:53;;;;;;;7.32;2.70;;;18.50;99.90;;;;;;5382290;26;20237;-72
2024/04/08 04:28:20;;;;;;;4.95;2.63;;;18.40;99.90;;;;;;5382140;26;20238;-74
2024/04/08 04:30:56;;;;;;;10.25;2.70;;;18.40;99.90;;;;;;5380955;26;20859;-75
2024/04/08 04:33:22;;;;;;;5.88;2.33;;;18.40;99.90;;;;;;5368476;26;20540;-73
2024/04/08 04:35:57;;;;;;;9.35;2.40;;;18.40;99.90;;;;;;5381089;26;20272;-73
2024/04/08 04:38:24;;;;;;;11.68;2.92;;;18.40;99.90;;;;;;5381707;26;20230;-74
2024/04/08 04:41:03;;;;;;;15.30;3.33;;;18.40;99.90;;;;;;5381424;26;20234;-73
2024/04/08 04:43:30;;;;;;;7.95;2.13;;;18.40;99.90;;;;;;5379529;26;20548;-74
2024/04/08 04:45:56;;;;;;;13.93;2.55;;;18.30;99.90;;;;;;5378236;26;20852;-74
2024/04/08 04:48:21;;;;;;;6.97;1.67;;;18.30;99.90;;;;;;5382767;26;20246;-73
2024/04/08 04:50:47;;;;;;;9.98;3.08;;;18.20;99.90;;;;;;5384684;26;20226;-74
2024/04/08 04:53:13;;;;;;;9.90;2.38;;;18.20;99.90;;;;;;5386607;26;20292;-74
2024/04/08 04:55:38;;;;;;;7.32;2.22;;;18.20;99.90;;;;;;5385322;26;20230;-74
2024/04/08 04:58:07;;;;;;;11.15;2.45;;;18.20;99.90;;;;;;5382064;26;20233;-76
2024/04/08 05:00:36;;;;;;;10.90;2.53;;;18.20;99.90;;;;;;5371065;26;20246;-74
2024/04/08 05:03:01;;;;;;;8.23;2.30;;;18.20;99.90;;;;;;5390143;26;20350;-74
2024/04/08 05:05:27;;;;;;;14.35;2.67;;;18.20;99.90;;;;;;5387171;26;20238;-73
2024/04/08 05:07:53;;;;;;;12.18;2.38;;;18.20;99.90;;;;;;5405252;21;20265;-73
2024/04/08 05:10:19;;;;;;;5.22;2.00;;;18.20;99.90;;;;;;5381891;26;20234;-72
2024/04/08 05:12:44;;;;;;;11.60;2.58;;;18.30;99.90;;;;;;5363607;26;20238;-71
2024/04/08 05:15:10;;;;;;;8.27;2.78;;;18.30;99.90;;;;;;5361033;26;20274;-73
2024/04/08 05:17:36;;;;;;;10.40;2.78;;;18.30;99.90;;;;;;5317433;26;20247;-71
2024/04/08 05:20:03;;;;;;;10.60;2.55;;;18.30;99.90;;;;;;5324059;26;20242;-72
2024/04/08 05:22:29;;;;;;;12.95;3.15;;;18.30;99.90;;;;;;5324125;26;20244;-71
2024/04/08 05:24:55;;;;;;;11.52;2.95;;;18.30;99.90;;;;;;5309369;26;20319;-71
2024/04/08 05:27:21;;;;;;;14.77;3.60;;;18.20;99.90;;;;;;5323393;26;20242;-72
2024/04/08 05:29:47;;;;;;;10.63;3.10;;;18.30;99.90;;;;;;5315630;26;20342;-72
2024/04/08 05:32:12;;;;;;;13.75;2.95;;;18.30;99.90;;;;;;5281583;26;20806;-71
2024/04/08 05:34:39;;;;;;;13.00;3.63;;;18.30;99.90;;;;;;5311840;26;20252;-72
2024/04/08 05:37:04;;;;;;;8.02;2.92;;;18.30;99.90;;;;;;5326355;26;20343;-72
2024/04/08 05:39:30;;;;;;;6.97;2.72;;;18.30;99.90;;;;;;5325686;26;20238;-73
2024/04/08 05:41:56;;;;;;;9.00;2.75;;;18.30;99.90;;;;;;5348789;26;20657;-72
2024/04/08 05:44:21;;;;;;;7.22;2.60;;;18.30;99.90;;;;;;5347308;26;20231;-72
2024/04/08 05:46:47;;;;;;;8.02;2.58;;;18.30;99.90;;;;;;5347201;26;20289;-71
2024/04/08 05:49:13;;;;;;;7.30;2.50;;;18.30;99.90;;;;;;5346835;26;20238;-72
2024/04/08 05:51:38;;;;;;;5.15;2.13;;;18.30;99.90;;;;;;5331932;26;20285;-72
2024/04/08 05:54:04;;;;;;;9.20;2.17;;;18.30;99.90;;;;;;5321990;26;20601;-72
2024/04/08 05:56:30;;;;;;;8.77;2.58;;;18.30;99.90;;;;;;5329000;26;20290;-71
2024/04/08 05:58:57;;;;;;;8.90;2.60;;;18.30;99.90;;;;;;5326082;26;20778;-72
2024/04/08 06:01:22;;;;;;;7.97;2.45;;;18.30;99.90;;;;;;5311992;26;20235;-73
2024/04/08 06:03:48;;;;;;;9.43;2.25;;;18.30;99.90;;;;;;5311776;26;20283;-73
2024/04/08 06:06:17;;;;;;;14.32;3.03;;;18.30;99.90;;;;;;5317987;26;20286;-72
2024/04/08 06:08:43;;;;;;;16.88;2.95;;;18.40;99.90;;;;;;5321434;26;20657;-72
2024/04/08 06:11:10;;;;;;;16.20;3.30;;;18.40;99.90;;;;;;5337863;26;20236;-72
2024/04/08 06:13:36;;;;;;;14.40;3.15;;;18.40;99.90;;;;;;5317633;26;20228;-73
2024/04/08 06:16:03;;;;;;;15.18;2.78;;;18.40;99.90;;;;;;5315559;26;20330;-71
2024/04/08 06:18:29;;;;;;;15.43;3.95;;;18.40;99.90;;;;;;5346713;26;20281;-72
2024/04/08 06:20:56;;;;;;;16.55;3.17;;;18.50;99.90;;;;;;5345287;26;20234;-73
2024/04/08 06:23:21;;;;;;;8.65;2.55;;;18.50;99.90;;;;;;5331949;26;20243;-72
2024/04/08 06:25:56;;;;;;;14.75;3.03;;;18.50;99.90;;;;;;5346963;26;20231;-71
2024/04/08 06:28:22;;;;;;;13.65;3.33;;;18.50;99.90;;;;;;5346946;26;20272;-73
2024/04/08 06:30:47;;;;;;;7.32;3.08;;;18.60;99.90;;;;;;5333664;26;20231;-72
2024/04/08 06:33:13;;;;;;;17.75;2.97;;;18.60;99.90;;;;;;5344088;26;20235;-72
2024/04/08 06:35:42;;;;;;;9.45;3.35;;;18.70;99.90;;;;;;5324521;26;20288;-71
2024/04/08 06:38:08;;;;;;;11.77;3.92;;;18.70;99.90;;;;;;5329416;26;20236;-72
2024/04/08 06:40:33;;;;;;;8.10;2.97;;;18.90;99.90;;;;;;5330576;26;20363;-72
2024/04/08 06:42:59;;;;;;;9.98;2.70;;;19.10;99.90;;;;;;5317753;26;20338;-72
2024/04/08 06:45:25;;;;;;;10.48;3.22;;;19.40;99.90;;;;;;5314454;26;20235;-72
2024/04/08 06:47:52;;;;;;;14.07;3.30;;;19.60;99.90;;;;;;5340720;26;20235;-71
2024/04/08 06:50:17;;;;;;;6.78;2.92;;;19.80;99.90;;;;;;5330810;26;20360;-72
2024/04/08 06:52:43;;;;;;;13.90;2.45;;;20.10;99.90;;;;;;5346083;26;20246;-73
2024/04/08 06:55:09;;;;;;;14.60;3.00;;;20.20;99.90;;;;;;5313051;26;20350;-72
2024/04/08 06:57:36;;;;;;;8.35;2.67;;;20.40;99.90;;;;;;5312685;26;20286;-71
2024/04/08 07:00:03;;;;;;;12.02;2.97;;;20.50;99.90;;;;;;5317886;26;20670;-72
2024/04/08 07:02:28;;;;;;;8.68;2.95;;;20.50;99.90;;;;;;5320237;26;20236;-72
2024/04/08 07:04:54;;;;;;;11.45;3.40;;;20.50;99.90;;;;;;5333590;26;20231;-72
2024/04/08 07:07:20;;;;;;;10.75;3.53;;;20.40;99.90;;;;;;5311919;26;20279;-72
2024/04/08 07:09:46;;;;;;;8.95;3.00;;;20.50;99.90;;;;;;5311454;26;20240;-72
2024/04/08 07:12:12;;;;;;;7.13;3.00;;;20.40;99.90;;;;;;5310963;26;20232;-71
2024/04/08 07:14:37;;;;;;;8.15;2.58;;;20.40;99.90;;;;;;5320317;26;20235;-73
2024/04/08 07:17:03;;;;;;;11.77;3.13;;;20.40;99.90;;;;;;5319846;26;20277;-73
2024/04/08 07:19:29;;;;;;;7.78;2.55;;;20.50;99.90;;;;;;5325821;26;20236;-72
2024/04/08 07:21:55;;;;;;;10.43;2.70;;;20.50;99.90;;;;;;5340544;26;20230;-72
2024/04/08 07:24:20;;;;;;;10.07;2.28;;;20.50;99.90;;;;;;5342339;26;20812;-72
2024/04/08 07:26:46;;;;;;;3.95;2.05;;;20.60;99.90;;;;;;5330429;26;20247;-72
2024/04/08 07:29:12;;;;;;;6.45;2.42;;;20.70;99.90;;;;;;5325914;26;20231;-72
2024/04/08 07:31:37;;;;;;;5.85;2.33;;;20.60;99.90;;;;;;5319943;26;20746;-72
2024/04/08 07:34:03;;;;;;;7.63;2.42;;;20.60;99.90;;;;;;5328093;26;20749;-73
2024/04/08 07:36:28;;;;;;;6.45;2.80;;;20.60;99.90;;;;;;5313950;26;20255;-72
2024/04/08 07:38:54;;;;;;;5.40;2.30;;;20.60;99.90;;;;;;5318866;26;20255;-72
2024/04/08 07:41:21;;;;;;;5.97;2.50;;;20.70;99.90;;;;;;5334996;26;20277;-72
2024/04/08 07:43:47;;;;;;;11.35;2.92;;;20.80;99.90;;;;;;5348213;26;20783;-72
2024/04/08 07:46:13;;;;;;;12.50;2.53;;;21.10;99.90;;;;;;5341418;26;20239;-72
2024/04/08 07:48:39;;;;;;;4.22;2.38;;;21.30;99.90;;;;;;5328186;26;20228;-72
2024/04/08 07:51:04;;;;;;;6.38;2.08;;;21.40;99.90;;;;;;5314082;26;20628;-72
2024/04/08 07:53:32;;;;;;;11.32;2.67;;;21.40;99.90;;;;;;5313537;26;20284;-72
2024/04/08 07:55:59;;;;;;;9.23;2.78;;;21.30;99.90;;;;;;5313666;26;20228;-73
2024/04/08 07:58:26;;;;;;;7.68;2.20;;;21.20;99.90;;;;;;5313487;26;20228;-72
2024/04/08 08:00:59;;;;;;;7.55;2.58;;;21.20;99.90;;;;;;5326065;26;20302;-72
2024/04/08 08:03:26;;;;;;;11.10;2.45;;;21.30;99.90;;;;;;5312976;26;20784;-72
2024/04/08 08:05:53;;;;;;;4.50;2.35;;;21.40;99.90;;;;;;5339390;26;20247;-73
2024/04/08 08:08:18;;;;;;;6.18;2.15;;;21.70;99.90;;;;;;5348424;26;20234;-72
2024/04/08 08:10:45;;;;;;;7.65;2.20;;;21.90;99.90;;;;;;5349309;26;20281;-72
2024/04/08 08:13:11;;;;;;;9.02;2.40;;;22.00;99.90;;;;;;5345248;26;20234;-72
2024/04/08 08:15:37;;;;;;;3.95;2.25;;;22.10;99.90;;;;;;5324790;26;20340;-72
2024/04/08 08:18:02;;;;;;;6.85;2.30;;;22.20;99.90;;;;;;5331334;26;20247;-73
2024/04/08 08:20:28;;;;;;;11.35;2.05;;;22.30;99.90;;;;;;5327255;26;20342;-72
2024/04/08 08:22:56;;;;;;;8.73;2.10;;;22.10;99.90;;;;;;5313570;26;20240;-72
2024/04/08 08:25:24;;;;;;;10.70;2.70;;;22.10;99.90;;;;;;5341659;26;20227;-71
2024/04/08 08:27:50;;;;;;;8.77;2.45;;;22.10;99.90;;;;;;5348363;26;20289;-72
2024/04/08 08:30:16;;;;;;;9.98;2.70;;;22.20;99.90;;;;;;5346153;26;20332;-72
2024/04/08 08:32:43;;;;;;;3.22;1.35;;;22.30;99.90;;;;;;5335500;26;20295;-71
2024/04/08 08:35:08;;;;;;;5.22;2.33;;;22.50;99.90;;;;;;5328776;26;20297;-71
2024/04/08 08:37:34;;;;;;;5.43;1.60;;;22.80;99.90;;;;;;5318754;26;20255;-72
2024/04/08 08:39:59;;;;;;;11.23;2.50;;;23.10;99.90;;;;;;5334940;26;20768;-72
2024/04/08 08:42:28;;;;;;;5.35;2.28;;;23.40;99.90;;;;;;5314359;26;20244;-72
2024/04/08 08:44:56;;;;;;;6.38;2.05;;;23.70;99.90;;;;;;5312989;26;20325;-72
2024/04/08 08:47:23;;;;;;;9.68;3.00;;;23.90;99.90;;;;;;5322909;26;20673;-73
2024/04/08 08:49:52;;;;;;;3.65;1.75;;;24.10;99.90;;;;;;5348058;26;20227;-70
2024/04/08 08:52:21;;;;;;;5.70;2.17;;;24.20;99.90;;;;;;5345464;26;20248;-72
2024/04/08 08:54:51;;;;;;;9.63;2.40;;;24.40;99.90;;;;;;5343824;26;20227;-72
2024/04/08 08:57:17;;;;;;;6.53;2.22;;;24.60;99.90;;;;;;5320015;26;20286;-72
2024/04/08 08:59:45;;;;;;;10.65;2.63;;;24.80;99.90;;;;;;5348562;26;20238;-72
2024/04/08 09:02:13;;;;;;;9.05;2.60;;;24.90;99.90;;;;;;5347459;26;20302;-73
2024/04/08 09:04:40;;;;;;;8.50;2.08;;;25.00;99.90;;;;;;5347405;26;20234;-72
2024/04/08 09:07:07;;;;;;;7.03;2.05;;;25.00;99.90;;;;;;5347517;26;20317;-72
2024/04/08 09:09:32;;;;;;;10.02;2.78;;;24.90;99.90;;;;;;5340306;26;20248;-72
2024/04/08 09:11:58;;;;;;;8.25;2.53;;;25.00;99.90;;;;;;5327576;26;20897;-73
2024/04/08 09:14:24;;;;;;;5.20;2.42;;;25.10;99.90;;;;;;5332057;26;20223;-73
2024/04/08 09:16:52;;;;;;;6.78;2.33;;;25.10;99.90;;;;;;5332459;26;20246;-73
2024/04/08 09:19:17;;;;;;;9.00;2.33;;;25.40;99.90;;;;;;5347553;26;20918;-72
2024/04/08 09:21:43;;;;;;;7.45;2.33;;;25.40;99.90;;;;;;5355444;26;20586;-72
2024/04/08 09:24:09;;;;;;;8.30;2.45;;;25.20;99.90;;;;;;5343512;26;20238;-73
2024/04/08 09:26:35;;;;;;;8.45;1.90;;;25.00;99.90;;;;;;5330576;26;20273;-73
2024/04/08 09:29:01;;;;;;;5.28;1.80;;;24.90;99.90;;;;;;5343354;26;20281;-73
2024/04/08 09:31:31;;;;;;;11.30;2.53;;;24.80;99.90;;;;;;5343864;26;20279;-72
2024/04/08 09:33:57;;;;;;;8.85;2.50;;;24.90;99.90;;;;;;5327129;26;20231;-72
2024/04/08 09:36:23;;;;;;;10.52;2.40;;;25.00;99.90;;;;;;5347651;26;20286;-72
2024/04/08 09:38:50;;;;;;;8.07;2.00;;;25.10;99.90;;;;;;5338917;26;20765;-72
2024/04/08 09:41:17;;;;;;;9.13;2.28;;;25.30;99.90;;;;;;5347716;26;20474;-72
2024/04/08 09:43:45;;;;;;;8.77;2.63;;;25.40;99.90;;;;;;5346818;26;20242;-72
2024/04/08 09:46:11;;;;;;;6.93;2.08;;;25.50;99.90;;;;;;5347308;26;20238;-73
2024/04/08 09:48:38;;;;;;;7.57;2.60;;;25.80;99.90;;;;;;5344113;26;20247;-72
2024/04/08 09:51:06;;;;;;;5.47;1.90;;;25.90;99.90;;;;;;5332463;26;20274;-73
2024/04/08 09:53:35;;;;;;;9.63;2.70;;;26.10;99.90;;;;;;5337403;26;20244;-71
2024/04/08 09:56:11;;;;;;;7.30;3.03;;;26.20;99.90;;;;;;5329332;26;20591;-72
2024/04/08 09:58:40;;;;;;;7.43;3.47;;;26.20;99.50;;;;;;5313332;26;20281;-72
2024/04/08 10:01:06;;;;;;;10.10;2.63;;;26.30;99.10;;;;;;5341872;26;20239;-73
2024/04/08 10:03:42;;;;;;;6.32;2.63;;;26.30;99.50;;;;;;5323870;26;20239;-72
2024/04/08 10:06:10;;;;;;;6.72;2.60;;;26.30;98.10;;;;;;5311074;26;21608;-73
2024/04/08 10:08:37;;;;;;;9.73;2.22;;;26.40;97.70;;;;;;5328861;26;20578;-73
2024/04/08 10:11:03;;;;;;;7.47;2.25;;;26.40;97.30;;;;;;5317404;26;20643;-72
2024/04/08 10:13:29;;;;;;;14.18;2.30;;;26.50;97.00;;;;;;5345203;26;20277;-72
2024/04/08 10:16:07;;;;;;;7.38;2.50;;;26.60;96.20;;;;;;5340840;26;20303;-72
2024/04/08 10:18:33;;;;;;;17.58;2.38;;;26.60;96.30;;;;;;5319304;26;20343;-73
2024/04/08 10:20:58;;;;;;;14.63;2.88;;;26.60;95.40;;;;;;5348343;26;20246;-72
2024/04/08 10:23:29;;;;;;;5.90;1.85;;;26.50;95.60;;;;;;5330694;26;20733;-72
2024/04/08 10:25:58;;;;;;;7.97;3.20;;;26.60;95.40;;;;;;5318508;26;20646;-74
2024/04/08 10:28:28;;;;;;;9.75;1.90;;;26.70;95.60;;;;;;5309910;26;20746;-72
2024/04/08 10:31:02;;;;;;;9.13;2.05;;;26.90;94.40;;;;;;5325193;26;20871;-73
2024/04/08 10:33:28;;;;;;;6.75;2.20;;;26.90;93.40;;;;;;5344925;26;20238;-73
2024/04/08 10:35:54;;;;;;;8.85;2.28;;;27.00;93.60;;;;;;5346534;26;20341;-72
2024/04/08 10:38:20;;;;;;;12.30;2.28;;;27.10;94.50;;;;;;5346058;26;20233;-72
2024/04/08 10:40:45;;;;;;;9.68;2.20;;;27.10;93.00;;;;;;5345690;26;20277;-72
2024/04/08 10:43:11;;;;;;;8.20;2.50;;;27.20;92.80;;;;;;5343774;26;20273;-73
2024/04/08 10:45:37;;;;;;;7.30;2.25;;;27.30;93.20;;;;;;5337216;26;20338;-72
2024/04/08 10:48:03;;;;;;;8.68;1.90;;;27.40;93.50;;;;;;5344542;26;20598;-73
2024/04/08 10:50:29;;;;;;;8.68;1.83;;;27.50;92.20;;;;;;5346050;26;20261;-72
2024/04/08 10:52:55;;;;;;;9.73;2.70;;;27.60;91.50;;;;;;5343336;26;20856;-73
2024/04/08 10:55:21;;;;;;;9.95;1.88;;;27.70;89.80;;;;;;5330906;26;20239;-73
2024/04/08 10:57:47;;;;;;;10.77;2.22;;;27.70;90.00;;;;;;5338786;26;20248;-73
2024/04/08 11:00:13;;;;;;;11.98;2.10;;;27.80;90.50;;;;;;5316755;26;20247;-72
2024/04/08 11:02:39;;;;;;;11.73;2.25;;;27.70;88.70;;;;;;5321029;26;20336;-73
2024/04/08 11:05:06;;;;;;;7.30;2.33;;;27.60;90.00;;;;;;5310223;26;20239;-73
2024/04/08 11:07:37;;;;;;;9.38;2.63;;;27.60;90.70;;;;;;5322832;26;20247;-71
2024/04/08 11:10:10;;;;;;;6.28;2.13;;;27.60;90.50;;;;;;5317712;26;20248;-72
2024/04/08 11:12:36;;;;;;;6.28;1.77;;;27.80;87.90;;;;;;5325718;26;20758;-72
2024/04/08 11:15:03;;;;;;;8.98;1.95;;;27.80;87.50;;;;;;5312461;26;20718;-73
2024/04/08 11:17:29;;;;;;;8.60;1.95;;;27.80;87.40;;;;;;5311510;26;20564;-73
2024/04/08 11:19:59;;;;;;;7.53;1.70;;;27.90;85.50;;;;;;5312142;26;20318;-72
2024/04/08 11:22:25;;;;;;;5.22;2.17;;;27.90;85.60;;;;;;5325173;26;20244;-71
2024/04/08 11:24:51;;;;;;;5.90;2.33;;;27.90;85.30;;;;;;5331060;26;20276;-73
2024/04/08 11:27:17;;;;;;;14.40;2.35;;;27.90;87.60;;;;;;5307906;26;20746;-71
2024/04/08 11:29:44;;;;;;;17.83;3.08;;;27.90;86.80;;;;;;5305299;26;20243;-71
2024/04/08 11:32:13;;;;;;;9.55;2.33;;;28.00;85.90;;;;;;5307577;26;20610;-71
2024/04/08 11:34:40;;;;;;;8.38;1.70;;;28.00;82.70;;;;;;5323545;26;20250;-72
2024/04/08 11:37:09;;;;;;;7.10;1.73;;;28.00;78.10;;;;;;5328132;26;20356;-72
2024/04/08 11:39:53;;;;;;;12.07;1.98;;;28.10;78.50;;;;;;5338292;26;20795;-72
2024/04/08 11:42:18;;;;;;;5.43;1.95;;;28.00;78.30;;;;;;5350612;26;20251;-73
2024/04/08 11:44:44;;;;;;;12.38;2.17;;;28.00;78.70;;;;;;5344450;26;20285;-72
2024/04/08 11:47:13;;;;;;;13.00;2.42;;;28.10;79.00;;;;;;5327822;26;20283;-73
2024/04/08 11:49:39;;;;;;;11.80;3.20;;;28.10;78.50;;;;;;5324361;26;20235;-72
2024/04/08 11:52:05;;;;;;;17.05;4.30;;;28.10;78.40;;;;;;5313583;26;20236;-72
2024/04/08 11:54:31;;;;;;;10.80;3.58;;;28.00;79.10;;;;;;5316013;26;20350;-72
2024/04/08 11:57:00;;;;;;;11.95;2.42;;;27.90;80.30;;;;;;5343969;26;20243;-72
2024/04/08 11:59:25;;;;;;;9.68;2.13;;;28.00;80.90;;;;;;5313616;26;20638;-72
2024/04/08 12:01:51;;;;;;;11.73;2.13;;;28.00;81.80;;;;;;5345260;26;20263;-72
2024/04/08 12:04:17;;;;;;;11.43;2.47;;;28.00;81.20;;;;;;5354229;26;20230;-72
2024/04/08 12:06:43;;;;;;;12.60;3.13;;;28.10;81.20;;;;;;5325249;26;20287;-72
2024/04/08 12:09:09;;;;;;;9.25;2.15;;;28.10;81.20;;;;;;5323949;26;20277;-72
2024/04/08 12:11:35;;;;;;;14.48;2.60;;;28.30;82.60;;;;;;5332255;26;20303;-72
2024/04/08 12:14:00;;;;;;;13.10;1.67;;;28.30;81.40;;;;;;5322939;26;20334;-72
2024/04/08 12:16:26;;;;;;;15.63;2.10;;;28.30;78.40;;;;;;5344589;26;20336;-72
2024/04/08 12:18:53;;;;;;;10.60;2.08;;;28.30;75.20;;;;;;5313880;26;20243;-73
2024/04/08 12:21:18;;;;;;;6.20;2.25;;;28.20;73.80;;;;;;5313625;26;20235;-71
2024/04/08 12:23:44;;;;;;;21.88;4.13;;;27.90;74.20;;;;;;5300711;26;20596;-72
2024/04/08 12:26:13;;;;;;;7.53;2.97;;;27.90;76.40;;;;;;5342064;26;20235;-72
2024/04/08 12:28:39;;;;;;;10.60;3.03;;;28.00;77.00;;;;;;5340837;26;20240;-73
2024/04/08 12:31:05;;;;;;;12.25;3.15;;;28.20;77.60;;;;;;5312941;26;20723;-72
2024/04/08 12:33:31;;;;;;;7.07;1.92;;;28.30;77.30;;;;;;5314452;26;20240;-73
2024/04/08 12:35:56;;;;;;;14.65;3.33;;;28.40;77.10;;;;;;5320102;26;20649;-73
2024/04/08 12:38:22;;;;;;;8.77;2.20;;;28.40;77.50;;;;;;5329927;26;21001;-73